sensor_id;sensor_type;location;lat;lon;timestamp;P1;durP1;ratioP1;P2;durP2;ratioP2
17214;SDS011;8723;51.502;6.918;2023-02-08T00:00:14;21.63;;;19.27;;
17214;SDS011;8723;51.502;6.918;2023-02-08T00:02:42;23.20;;;20.90;;
17214;SDS011;8723;51.502;6.918;2023-02-08T00:05:09;24.90;;;22.30;;
17214;SDS011;8723;51.502;6.918;2023-02-08T00:07:37;25.63;;;22.92;;
17214;SDS011;8723;51.502;6.918;2023-02-08T00:10:05;24.42;;;22.00;;
17214;SDS011;8723;51.502;6.918;2023-02-08T00:12:34;25.27;;;22.67;;
17214;SDS011;8723;51.502;6.918;2023-02-08T00:15:01;23.47;;;21.07;;
17214;SDS011;8723;51.502;6.918;2023-02-08T00:17:29;24.70;;;22.10;;
17214;SDS011;8723;51.502;6.918;2023-02-08T00:19:56;25.98;;;23.17;;
17214;SDS011;8723;51.502;6.918;2023-02-08T00:22:23;26.85;;;24.05;;
17214;SDS011;8723;51.502;6.918;2023-02-08T00:24:51;26.15;;;23.45;;
17214;SDS011;8723;51.502;6.918;2023-02-08T00:27:20;26.67;;;23.98;;
17214;SDS011;8723;51.502;6.918;2023-02-08T00:29:47;28.08;;;25.17;;
17214;SDS011;8723;51.502;6.918;2023-02-08T00:32:14;27.80;;;24.80;;
17214;SDS011;8723;51.502;6.918;2023-02-08T00:34:41;27.45;;;24.70;;
17214;SDS011;8723;51.502;6.918;2023-02-08T00:37:08;28.00;;;25.20;;
17214;SDS011;8723;51.502;6.918;2023-02-08T00:39:35;26.67;;;24.02;;
17214;SDS011;8723;51.502;6.918;2023-02-08T00:42:04;26.77;;;23.98;;
17214;SDS011;8723;51.502;6.918;2023-02-08T00:44:31;27.38;;;24.58;;
17214;SDS011;8723;51.502;6.918;2023-02-08T00:46:58;29.52;;;26.38;;
17214;SDS011;8723;51.502;6.918;2023-02-08T00:49:25;30.25;;;27.08;;
17214;SDS011;8723;51.502;6.918;2023-02-08T00:51:53;27.87;;;24.87;;
17214;SDS011;8723;51.502;6.918;2023-02-08T00:54:20;29.20;;;26.15;;
17214;SDS011;8723;51.502;6.918;2023-02-08T00:56:50;29.63;;;26.52;;
17214;SDS011;8723;51.502;6.918;2023-02-08T00:59:28;31.25;;;27.65;;
17214;SDS011;8723;51.502;6.918;2023-02-08T01:01:55;30.48;;;27.13;;
17214;SDS011;8723;51.502;6.918;2023-02-08T01:04:22;31.90;;;28.40;;
17214;SDS011;8723;51.502;6.918;2023-02-08T01:06:50;30.45;;;27.45;;
17214;SDS011;8723;51.502;6.918;2023-02-08T01:09:30;31.15;;;27.77;;
17214;SDS011;8723;51.502;6.918;2023-02-08T01:12:00;31.08;;;27.95;;
17214;SDS011;8723;51.502;6.918;2023-02-08T01:14:31;29.92;;;26.88;;
17214;SDS011;8723;51.502;6.918;2023-02-08T01:16:59;30.13;;;26.88;;
17214;SDS011;8723;51.502;6.918;2023-02-08T01:19:27;29.60;;;26.50;;
17214;SDS011;8723;51.502;6.918;2023-02-08T01:21:54;30.63;;;27.35;;
17214;SDS011;8723;51.502;6.918;2023-02-08T01:24:22;31.20;;;27.98;;
17214;SDS011;8723;51.502;6.918;2023-02-08T01:26:49;30.63;;;27.45;;
17214;SDS011;8723;51.502;6.918;2023-02-08T01:29:16;31.88;;;28.77;;
17214;SDS011;8723;51.502;6.918;2023-02-08T01:32:04;32.97;;;29.48;;
17214;SDS011;8723;51.502;6.918;2023-02-08T01:34:31;32.67;;;29.45;;
17214;SDS011;8723;51.502;6.918;2023-02-08T01:37:01;31.92;;;28.83;;
17214;SDS011;8723;51.502;6.918;2023-02-08T01:39:31;31.95;;;28.73;;
17214;SDS011;8723;51.502;6.918;2023-02-08T01:41:59;32.67;;;29.38;;
17214;SDS011;8723;51.502;6.918;2023-02-08T01:47:23;30.40;;;27.40;;
17214;SDS011;8723;51.502;6.918;2023-02-08T01:49:51;31.13;;;27.83;;
17214;SDS011;8723;51.502;6.918;2023-02-08T01:52:26;32.00;;;28.55;;
17214;SDS011;8723;51.502;6.918;2023-02-08T01:55:14;32.23;;;28.50;;
17214;SDS011;8723;51.502;6.918;2023-02-08T01:57:42;31.90;;;27.83;;
17214;SDS011;8723;51.502;6.918;2023-02-08T02:00:19;30.80;;;27.70;;
17214;SDS011;8723;51.502;6.918;2023-02-08T02:02:50;30.57;;;27.47;;
17214;SDS011;8723;51.502;6.918;2023-02-08T02:05:19;32.22;;;28.73;;
17214;SDS011;8723;51.502;6.918;2023-02-08T02:07:56;30.67;;;27.42;;
17214;SDS011;8723;51.502;6.918;2023-02-08T02:10:40;31.23;;;28.13;;
17214;SDS011;8723;51.502;6.918;2023-02-08T02:13:09;30.48;;;27.38;;
17214;SDS011;8723;51.502;6.918;2023-02-08T02:15:37;31.88;;;28.75;;
17214;SDS011;8723;51.502;6.918;2023-02-08T02:18:05;31.95;;;28.75;;
17214;SDS011;8723;51.502;6.918;2023-02-08T02:20:43;33.05;;;29.73;;
17214;SDS011;8723;51.502;6.918;2023-02-08T02:29:01;34.73;;;31.23;;
17214;SDS011;8723;51.502;6.918;2023-02-08T02:31:41;32.05;;;28.75;;
17214;SDS011;8723;51.502;6.918;2023-02-08T02:34:12;33.10;;;29.90;;
17214;SDS011;8723;51.502;6.918;2023-02-08T02:36:44;32.65;;;29.45;;
17214;SDS011;8723;51.502;6.918;2023-02-08T02:39:15;32.95;;;29.65;;
17214;SDS011;8723;51.502;6.918;2023-02-08T02:41:46;34.42;;;31.05;;
17214;SDS011;8723;51.502;6.918;2023-02-08T02:44:34;32.78;;;29.58;;
17214;SDS011;8723;51.502;6.918;2023-02-08T02:47:06;33.95;;;30.55;;
17214;SDS011;8723;51.502;6.918;2023-02-08T02:49:35;34.77;;;31.37;;
17214;SDS011;8723;51.502;6.918;2023-02-08T02:52:05;35.67;;;32.17;;
17214;SDS011;8723;51.502;6.918;2023-02-08T02:54:33;33.88;;;30.55;;
17214;SDS011;8723;51.502;6.918;2023-02-08T02:57:01;35.63;;;32.00;;
17214;SDS011;8723;51.502;6.918;2023-02-08T02:59:30;34.30;;;30.95;;
17214;SDS011;8723;51.502;6.918;2023-02-08T03:01:58;34.08;;;30.67;;
17214;SDS011;8723;51.502;6.918;2023-02-08T03:07:13;35.85;;;32.33;;
17214;SDS011;8723;51.502;6.918;2023-02-08T03:09:45;36.97;;;33.45;;
17214;SDS011;8723;51.502;6.918;2023-02-08T03:12:18;37.22;;;33.60;;
17214;SDS011;8723;51.502;6.918;2023-02-08T03:14:50;37.47;;;33.87;;
17214;SDS011;8723;51.502;6.918;2023-02-08T03:17:27;39.63;;;35.90;;
17214;SDS011;8723;51.502;6.918;2023-02-08T03:19:58;39.55;;;35.83;;
17214;SDS011;8723;51.502;6.918;2023-02-08T03:22:31;40.95;;;37.20;;
17214;SDS011;8723;51.502;6.918;2023-02-08T03:25:04;41.15;;;37.25;;
17214;SDS011;8723;51.502;6.918;2023-02-08T03:27:34;41.35;;;37.45;;
17214;SDS011;8723;51.502;6.918;2023-02-08T03:30:05;38.58;;;35.05;;
17214;SDS011;8723;51.502;6.918;2023-02-08T03:32:36;40.85;;;37.05;;
17214;SDS011;8723;51.502;6.918;2023-02-08T03:35:04;45.60;;;41.40;;
17214;SDS011;8723;51.502;6.918;2023-02-08T03:37:36;42.58;;;38.78;;
17214;SDS011;8723;51.502;6.918;2023-02-08T03:40:05;43.22;;;39.13;;
17214;SDS011;8723;51.502;6.918;2023-02-08T03:42:33;44.97;;;40.83;;
17214;SDS011;8723;51.502;6.918;2023-02-08T03:45:02;44.88;;;40.78;;
17214;SDS011;8723;51.502;6.918;2023-02-08T03:47:32;47.97;;;43.53;;
17214;SDS011;8723;51.502;6.918;2023-02-08T03:50:01;46.03;;;41.63;;
17214;SDS011;8723;51.502;6.918;2023-02-08T03:52:30;45.60;;;41.40;;
17214;SDS011;8723;51.502;6.918;2023-02-08T03:55:00;45.70;;;41.50;;
17214;SDS011;8723;51.502;6.918;2023-02-08T03:57:28;45.85;;;41.45;;
17214;SDS011;8723;51.502;6.918;2023-02-08T03:59:57;44.92;;;40.72;;
17214;SDS011;8723;51.502;6.918;2023-02-08T04:02:26;46.53;;;42.22;;
17214;SDS011;8723;51.502;6.918;2023-02-08T04:04:54;48.55;;;43.65;;
17214;SDS011;8723;51.502;6.918;2023-02-08T04:07:21;48.90;;;44.30;;
17214;SDS011;8723;51.502;6.918;2023-02-08T04:09:48;49.25;;;44.63;;
17214;SDS011;8723;51.502;6.918;2023-02-08T04:12:17;50.55;;;45.63;;
17214;SDS011;8723;51.502;6.918;2023-02-08T04:14:44;48.17;;;43.60;;
17214;SDS011;8723;51.502;6.918;2023-02-08T04:17:11;50.83;;;46.03;;
17214;SDS011;8723;51.502;6.918;2023-02-08T04:19:38;53.23;;;48.23;;
17214;SDS011;8723;51.502;6.918;2023-02-08T04:22:05;49.95;;;45.17;;
17214;SDS011;8723;51.502;6.918;2023-02-08T04:24:32;49.42;;;44.95;;
17214;SDS011;8723;51.502;6.918;2023-02-08T04:26:59;48.55;;;43.78;;
17214;SDS011;8723;51.502;6.918;2023-02-08T04:29:28;48.13;;;43.65;;
17214;SDS011;8723;51.502;6.918;2023-02-08T04:31:55;49.50;;;44.75;;
17214;SDS011;8723;51.502;6.918;2023-02-08T04:34:24;47.70;;;43.20;;
17214;SDS011;8723;51.502;6.918;2023-02-08T04:36:51;47.63;;;43.13;;
17214;SDS011;8723;51.502;6.918;2023-02-08T04:39:18;48.35;;;43.75;;
17214;SDS011;8723;51.502;6.918;2023-02-08T04:41:45;48.15;;;43.63;;
17214;SDS011;8723;51.502;6.918;2023-02-08T04:44:12;48.10;;;43.50;;
17214;SDS011;8723;51.502;6.918;2023-02-08T04:46:41;45.60;;;41.25;;
17214;SDS011;8723;51.502;6.918;2023-02-08T04:49:08;45.30;;;41.10;;
17214;SDS011;8723;51.502;6.918;2023-02-08T04:51:35;45.15;;;40.85;;
17214;SDS011;8723;51.502;6.918;2023-02-08T04:54:02;42.40;;;38.40;;
17214;SDS011;8723;51.502;6.918;2023-02-08T04:56:30;43.42;;;39.08;;
17214;SDS011;8723;51.502;6.918;2023-02-08T04:58:57;43.25;;;38.95;;
17214;SDS011;8723;51.502;6.918;2023-02-08T05:01:24;44.63;;;40.07;;
17214;SDS011;8723;51.502;6.918;2023-02-08T05:03:52;42.03;;;37.78;;
17214;SDS011;8723;51.502;6.918;2023-02-08T05:06:19;39.97;;;36.05;;
17214;SDS011;8723;51.502;6.918;2023-02-08T05:08:47;40.90;;;36.70;;
17214;SDS011;8723;51.502;6.918;2023-02-08T05:11:18;38.85;;;35.10;;
17214;SDS011;8723;51.502;6.918;2023-02-08T05:13:45;39.78;;;35.85;;
17214;SDS011;8723;51.502;6.918;2023-02-08T05:16:12;37.88;;;34.17;;
17214;SDS011;8723;51.502;6.918;2023-02-08T05:18:39;38.50;;;34.65;;
17214;SDS011;8723;51.502;6.918;2023-02-08T05:21:08;36.13;;;32.47;;
17214;SDS011;8723;51.502;6.918;2023-02-08T05:23:35;35.75;;;32.05;;
17214;SDS011;8723;51.502;6.918;2023-02-08T05:26:04;35.78;;;31.98;;
17214;SDS011;8723;51.502;6.918;2023-02-08T05:28:32;36.13;;;32.35;;
17214;SDS011;8723;51.502;6.918;2023-02-08T05:30:59;35.17;;;31.08;;
17214;SDS011;8723;51.502;6.918;2023-02-08T05:33:26;33.97;;;30.47;;
17214;SDS011;8723;51.502;6.918;2023-02-08T05:35:53;34.05;;;30.67;;
17214;SDS011;8723;51.502;6.918;2023-02-08T05:38:21;34.70;;;31.10;;
17214;SDS011;8723;51.502;6.918;2023-02-08T05:40:48;33.67;;;30.13;;
17214;SDS011;8723;51.502;6.918;2023-02-08T05:43:15;35.08;;;31.27;;
17214;SDS011;8723;51.502;6.918;2023-02-08T05:45:43;33.97;;;30.38;;
17214;SDS011;8723;51.502;6.918;2023-02-08T05:48:10;35.80;;;32.08;;
17214;SDS011;8723;51.502;6.918;2023-02-08T05:50:37;36.22;;;32.30;;
17214;SDS011;8723;51.502;6.918;2023-02-08T05:53:04;36.95;;;33.05;;
17214;SDS011;8723;51.502;6.918;2023-02-08T05:55:32;36.45;;;32.40;;
17214;SDS011;8723;51.502;6.918;2023-02-08T05:58:00;33.88;;;30.27;;
17214;SDS011;8723;51.502;6.918;2023-02-08T06:00:27;33.30;;;29.80;;
17214;SDS011;8723;51.502;6.918;2023-02-08T06:02:55;32.35;;;29.00;;
17214;SDS011;8723;51.502;6.918;2023-02-08T06:05:22;31.67;;;28.37;;
17214;SDS011;8723;51.502;6.918;2023-02-08T06:07:50;31.67;;;28.33;;
17214;SDS011;8723;51.502;6.918;2023-02-08T06:10:17;31.13;;;27.92;;
17214;SDS011;8723;51.502;6.918;2023-02-08T06:12:45;29.88;;;26.77;;
17214;SDS011;8723;51.502;6.918;2023-02-08T06:15:12;31.65;;;28.35;;
17214;SDS011;8723;51.502;6.918;2023-02-08T06:17:39;29.90;;;26.80;;
17214;SDS011;8723;51.502;6.918;2023-02-08T06:20:07;30.10;;;26.60;;
17214;SDS011;8723;51.502;6.918;2023-02-08T06:22:34;30.52;;;27.27;;
17214;SDS011;8723;51.502;6.918;2023-02-08T06:25:02;30.37;;;27.17;;
17214;SDS011;8723;51.502;6.918;2023-02-08T06:27:29;29.80;;;26.55;;
17214;SDS011;8723;51.502;6.918;2023-02-08T06:29:58;30.65;;;27.45;;
17214;SDS011;8723;51.502;6.918;2023-02-08T06:32:25;32.20;;;28.85;;
17214;SDS011;8723;51.502;6.918;2023-02-08T06:34:52;31.30;;;28.20;;
17214;SDS011;8723;51.502;6.918;2023-02-08T06:37:19;30.30;;;27.05;;
17214;SDS011;8723;51.502;6.918;2023-02-08T06:39:46;31.85;;;28.48;;
17214;SDS011;8723;51.502;6.918;2023-02-08T06:42:13;30.30;;;27.20;;
17214;SDS011;8723;51.502;6.918;2023-02-08T06:44:40;30.85;;;27.65;;
17214;SDS011;8723;51.502;6.918;2023-02-08T06:47:09;29.85;;;26.48;;
17214;SDS011;8723;51.502;6.918;2023-02-08T06:49:36;28.77;;;25.67;;
17214;SDS011;8723;51.502;6.918;2023-02-08T06:52:03;30.02;;;26.38;;
17214;SDS011;8723;51.502;6.918;2023-02-08T06:54:30;29.63;;;26.48;;
17214;SDS011;8723;51.502;6.918;2023-02-08T06:56:58;29.10;;;26.00;;
17214;SDS011;8723;51.502;6.918;2023-02-08T06:59:25;29.90;;;26.67;;
17214;SDS011;8723;51.502;6.918;2023-02-08T07:01:52;30.33;;;27.13;;
17214;SDS011;8723;51.502;6.918;2023-02-08T07:04:20;29.30;;;26.13;;
17214;SDS011;8723;51.502;6.918;2023-02-08T07:06:47;29.35;;;26.17;;
17214;SDS011;8723;51.502;6.918;2023-02-08T07:09:15;30.67;;;26.52;;
17214;SDS011;8723;51.502;6.918;2023-02-08T07:11:42;30.20;;;25.77;;
17214;SDS011;8723;51.502;6.918;2023-02-08T07:14:10;29.38;;;26.17;;
17214;SDS011;8723;51.502;6.918;2023-02-08T07:16:37;29.42;;;26.35;;
17214;SDS011;8723;51.502;6.918;2023-02-08T07:19:04;30.17;;;26.77;;
17214;SDS011;8723;51.502;6.918;2023-02-08T07:21:33;29.30;;;26.20;;
17214;SDS011;8723;51.502;6.918;2023-02-08T07:24:00;28.55;;;25.52;;
17214;SDS011;8723;51.502;6.918;2023-02-08T07:26:27;30.20;;;27.00;;
17214;SDS011;8723;51.502;6.918;2023-02-08T07:28:54;29.03;;;25.40;;
17214;SDS011;8723;51.502;6.918;2023-02-08T07:31:21;30.10;;;26.67;;
17214;SDS011;8723;51.502;6.918;2023-02-08T07:33:48;30.50;;;27.25;;
17214;SDS011;8723;51.502;6.918;2023-02-08T07:36:16;29.20;;;26.02;;
17214;SDS011;8723;51.502;6.918;2023-02-08T07:38:44;30.70;;;27.50;;
17214;SDS011;8723;51.502;6.918;2023-02-08T07:41:12;31.65;;;28.23;;
17214;SDS011;8723;51.502;6.918;2023-02-08T07:43:40;29.92;;;26.60;;
17214;SDS011;8723;51.502;6.918;2023-02-08T07:46:07;32.85;;;27.73;;
17214;SDS011;8723;51.502;6.918;2023-02-08T07:48:35;29.88;;;26.80;;
17214;SDS011;8723;51.502;6.918;2023-02-08T07:51:03;30.98;;;26.45;;
17214;SDS011;8723;51.502;6.918;2023-02-08T07:53:30;29.83;;;26.05;;
17214;SDS011;8723;51.502;6.918;2023-02-08T07:55:59;29.58;;;26.38;;
17214;SDS011;8723;51.502;6.918;2023-02-08T07:58:26;30.45;;;26.55;;
17214;SDS011;8723;51.502;6.918;2023-02-08T08:00:56;29.52;;;26.33;;
17214;SDS011;8723;51.502;6.918;2023-02-08T08:03:24;28.10;;;25.17;;
17214;SDS011;8723;51.502;6.918;2023-02-08T08:05:51;29.27;;;26.10;;
17214;SDS011;8723;51.502;6.918;2023-02-08T08:08:18;30.10;;;26.02;;
17214;SDS011;8723;51.502;6.918;2023-02-08T08:10:45;28.20;;;25.10;;
17214;SDS011;8723;51.502;6.918;2023-02-08T08:13:14;28.15;;;24.88;;
17214;SDS011;8723;51.502;6.918;2023-02-08T08:15:42;27.05;;;24.25;;
17214;SDS011;8723;51.502;6.918;2023-02-08T08:18:09;28.73;;;25.52;;
17214;SDS011;8723;51.502;6.918;2023-02-08T08:20:36;28.08;;;25.08;;
17214;SDS011;8723;51.502;6.918;2023-02-08T08:23:03;28.90;;;25.73;;
17214;SDS011;8723;51.502;6.918;2023-02-08T08:25:30;27.40;;;24.33;;
17214;SDS011;8723;51.502;6.918;2023-02-08T08:27:57;26.17;;;23.47;;
17214;SDS011;8723;51.502;6.918;2023-02-08T08:30:26;29.27;;;26.27;;
17214;SDS011;8723;51.502;6.918;2023-02-08T08:32:53;29.92;;;26.88;;
17214;SDS011;8723;51.502;6.918;2023-02-08T08:35:20;31.50;;;28.30;;
17214;SDS011;8723;51.502;6.918;2023-02-08T08:37:47;30.03;;;26.87;;
17214;SDS011;8723;51.502;6.918;2023-02-08T08:40:15;30.67;;;27.40;;
17214;SDS011;8723;51.502;6.918;2023-02-08T08:42:42;31.52;;;28.17;;
17214;SDS011;8723;51.502;6.918;2023-02-08T08:45:09;29.35;;;26.15;;
17214;SDS011;8723;51.502;6.918;2023-02-08T08:47:41;29.37;;;26.23;;
17214;SDS011;8723;51.502;6.918;2023-02-08T08:50:08;30.00;;;25.83;;
17214;SDS011;8723;51.502;6.918;2023-02-08T08:52:35;28.80;;;25.70;;
17214;SDS011;8723;51.502;6.918;2023-02-08T08:55:04;28.45;;;25.23;;
17214;SDS011;8723;51.502;6.918;2023-02-08T08:57:31;27.42;;;24.63;;
17214;SDS011;8723;51.502;6.918;2023-02-08T08:59:58;26.93;;;24.10;;
17214;SDS011;8723;51.502;6.918;2023-02-08T09:02:26;25.10;;;22.50;;
17214;SDS011;8723;51.502;6.918;2023-02-08T09:04:54;26.27;;;23.02;;
17214;SDS011;8723;51.502;6.918;2023-02-08T09:07:23;23.95;;;21.48;;
17214;SDS011;8723;51.502;6.918;2023-02-08T09:09:51;26.23;;;23.48;;
17214;SDS011;8723;51.502;6.918;2023-02-08T09:12:18;24.83;;;22.23;;
17214;SDS011;8723;51.502;6.918;2023-02-08T09:14:45;25.50;;;22.87;;
17214;SDS011;8723;51.502;6.918;2023-02-08T09:17:12;26.75;;;23.95;;
17214;SDS011;8723;51.502;6.918;2023-02-08T09:19:39;23.63;;;21.13;;
17214;SDS011;8723;51.502;6.918;2023-02-08T09:22:08;22.03;;;19.40;;
17214;SDS011;8723;51.502;6.918;2023-02-08T09:24:35;22.45;;;18.63;;
17214;SDS011;8723;51.502;6.918;2023-02-08T09:27:02;22.15;;;19.58;;
17214;SDS011;8723;51.502;6.918;2023-02-08T09:29:29;20.93;;;18.27;;
17214;SDS011;8723;51.502;6.918;2023-02-08T09:31:57;19.30;;;17.17;;
17214;SDS011;8723;51.502;6.918;2023-02-08T09:34:24;21.43;;;17.97;;
17214;SDS011;8723;51.502;6.918;2023-02-08T09:36:51;21.13;;;18.05;;
17214;SDS011;8723;51.502;6.918;2023-02-08T09:39:21;18.85;;;15.80;;
17214;SDS011;8723;51.502;6.918;2023-02-08T09:41:55;18.48;;;16.58;;
17214;SDS011;8723;51.502;6.918;2023-02-08T09:44:26;20.75;;;17.20;;
17214;SDS011;8723;51.502;6.918;2023-02-08T09:46:55;19.25;;;16.40;;
17214;SDS011;8723;51.502;6.918;2023-02-08T09:49:23;17.33;;;15.50;;
17214;SDS011;8723;51.502;6.918;2023-02-08T09:51:52;17.43;;;15.50;;
17214;SDS011;8723;51.502;6.918;2023-02-08T09:54:24;15.07;;;13.50;;
17214;SDS011;8723;51.502;6.918;2023-02-08T09:56:52;13.98;;;12.60;;
17214;SDS011;8723;51.502;6.918;2023-02-08T09:59:20;16.30;;;13.87;;
17214;SDS011;8723;51.502;6.918;2023-02-08T10:01:49;12.40;;;11.10;;
17214;SDS011;8723;51.502;6.918;2023-02-08T10:04:18;21.90;;;15.15;;
17214;SDS011;8723;51.502;6.918;2023-02-08T10:06:47;15.00;;;13.50;;
17214;SDS011;8723;51.502;6.918;2023-02-08T10:09:15;13.98;;;11.75;;
17214;SDS011;8723;51.502;6.918;2023-02-08T10:11:49;11.63;;;10.23;;
17214;SDS011;8723;51.502;6.918;2023-02-08T10:14:26;18.27;;;14.25;;
17214;SDS011;8723;51.502;6.918;2023-02-08T10:16:59;17.70;;;14.30;;
17214;SDS011;8723;51.502;6.918;2023-02-08T10:19:33;13.97;;;11.97;;
17214;SDS011;8723;51.502;6.918;2023-02-08T10:22:08;13.57;;;11.57;;
17214;SDS011;8723;51.502;6.918;2023-02-08T10:24:43;13.70;;;12.20;;
17214;SDS011;8723;51.502;6.918;2023-02-08T10:27:19;15.80;;;10.95;;
17214;SDS011;8723;51.502;6.918;2023-02-08T10:30:10;12.18;;;9.88;;
17214;SDS011;8723;51.502;6.918;2023-02-08T10:32:48;11.70;;;10.55;;
17214;SDS011;8723;51.502;6.918;2023-02-08T10:35:18;14.77;;;10.13;;
17214;SDS011;8723;51.502;6.918;2023-02-08T10:37:49;12.23;;;10.40;;
17214;SDS011;8723;51.502;6.918;2023-02-08T10:40:23;11.27;;;9.05;;
17214;SDS011;8723;51.502;6.918;2023-02-08T10:42:54;9.80;;;8.80;;
17214;SDS011;8723;51.502;6.918;2023-02-08T10:45:25;8.82;;;7.93;;
17214;SDS011;8723;51.502;6.918;2023-02-08T10:47:54;9.03;;;8.13;;
17214;SDS011;8723;51.502;6.918;2023-02-08T10:50:23;9.80;;;7.95;;
17214;SDS011;8723;51.502;6.918;2023-02-08T10:52:55;8.98;;;8.07;;
17214;SDS011;8723;51.502;6.918;2023-02-08T10:55:22;8.63;;;7.53;;
17214;SDS011;8723;51.502;6.918;2023-02-08T10:57:50;7.75;;;6.95;;
17214;SDS011;8723;51.502;6.918;2023-02-08T11:00:20;8.27;;;6.95;;
17214;SDS011;8723;51.502;6.918;2023-02-08T11:02:49;8.55;;;7.63;;
17214;SDS011;8723;51.502;6.918;2023-02-08T11:05:17;8.15;;;6.72;;
17214;SDS011;8723;51.502;6.918;2023-02-08T11:07:45;6.93;;;6.32;;
17214;SDS011;8723;51.502;6.918;2023-02-08T11:10:13;7.55;;;6.75;;
17214;SDS011;8723;51.502;6.918;2023-02-08T11:12:41;6.53;;;5.90;;
17214;SDS011;8723;51.502;6.918;2023-02-08T11:15:21;7.10;;;6.22;;
17214;SDS011;8723;51.502;6.918;2023-02-08T11:17:52;9.43;;;8.52;;
17214;SDS011;8723;51.502;6.918;2023-02-08T11:20:19;6.73;;;5.87;;
17214;SDS011;8723;51.502;6.918;2023-02-08T11:22:48;7.60;;;6.35;;
17214;SDS011;8723;51.502;6.918;2023-02-08T11:25:29;6.20;;;5.60;;
17214;SDS011;8723;51.502;6.918;2023-02-08T11:27:56;5.97;;;5.38;;
17214;SDS011;8723;51.502;6.918;2023-02-08T11:30:26;6.78;;;5.70;;
17214;SDS011;8723;51.502;6.918;2023-02-08T11:35:39;5.78;;;5.20;;
17214;SDS011;8723;51.502;6.918;2023-02-08T11:38:14;5.32;;;4.88;;
17214;SDS011;8723;51.502;6.918;2023-02-08T11:40:43;5.75;;;5.13;;
17214;SDS011;8723;51.502;6.918;2023-02-08T11:43:17;5.55;;;5.05;;
17214;SDS011;8723;51.502;6.918;2023-02-08T11:45:47;6.63;;;5.93;;
17214;SDS011;8723;51.502;6.918;2023-02-08T11:48:18;7.00;;;5.60;;
17214;SDS011;8723;51.502;6.918;2023-02-08T11:50:50;5.40;;;4.90;;
17214;SDS011;8723;51.502;6.918;2023-02-08T11:53:19;5.97;;;5.25;;
17214;SDS011;8723;51.502;6.918;2023-02-08T11:56:00;5.78;;;5.03;;
17214;SDS011;8723;51.502;6.918;2023-02-08T11:58:27;5.15;;;4.65;;
17214;SDS011;8723;51.502;6.918;2023-02-08T12:01:00;5.75;;;4.70;;
17214;SDS011;8723;51.502;6.918;2023-02-08T12:03:28;5.22;;;4.72;;
17214;SDS011;8723;51.502;6.918;2023-02-08T12:06:01;4.40;;;4.10;;
17214;SDS011;8723;51.502;6.918;2023-02-08T12:08:34;5.72;;;4.72;;
17214;SDS011;8723;51.502;6.918;2023-02-08T12:11:08;5.47;;;4.82;;
17214;SDS011;8723;51.502;6.918;2023-02-08T12:16:32;5.10;;;4.57;;
17214;SDS011;8723;51.502;6.918;2023-02-08T12:19:09;5.18;;;4.70;;
17214;SDS011;8723;51.502;6.918;2023-02-08T12:21:40;4.95;;;4.40;;
17214;SDS011;8723;51.502;6.918;2023-02-08T12:24:10;4.70;;;4.20;;
17214;SDS011;8723;51.502;6.918;2023-02-08T12:26:44;4.32;;;4.03;;
17214;SDS011;8723;51.502;6.918;2023-02-08T12:29:20;4.70;;;4.30;;
17214;SDS011;8723;51.502;6.918;2023-02-08T12:31:55;4.90;;;4.40;;
17214;SDS011;8723;51.502;6.918;2023-02-08T12:34:26;5.05;;;4.55;;
17214;SDS011;8723;51.502;6.918;2023-02-08T12:37:04;5.72;;;4.88;;
17214;SDS011;8723;51.502;6.918;2023-02-08T12:39:54;5.40;;;4.90;;
17214;SDS011;8723;51.502;6.918;2023-02-08T12:42:48;4.93;;;4.43;;
17214;SDS011;8723;51.502;6.918;2023-02-08T12:48:04;4.80;;;4.40;;
17214;SDS011;8723;51.502;6.918;2023-02-08T12:50:36;4.93;;;4.45;;
17214;SDS011;8723;51.502;6.918;2023-02-08T12:53:06;5.07;;;4.57;;
17214;SDS011;8723;51.502;6.918;2023-02-08T12:55:35;5.72;;;4.38;;
17214;SDS011;8723;51.502;6.918;2023-02-08T12:58:07;4.72;;;4.00;;
17214;SDS011;8723;51.502;6.918;2023-02-08T13:00:37;4.67;;;4.10;;
17214;SDS011;8723;51.502;6.918;2023-02-08T13:03:11;4.25;;;3.85;;
17214;SDS011;8723;51.502;6.918;2023-02-08T13:05:41;5.75;;;4.00;;
17214;SDS011;8723;51.502;6.918;2023-02-08T13:08:13;5.38;;;4.07;;
17214;SDS011;8723;51.502;6.918;2023-02-08T13:10:43;4.78;;;4.28;;
17214;SDS011;8723;51.502;6.918;2023-02-08T13:13:15;4.32;;;3.90;;
17214;SDS011;8723;51.502;6.918;2023-02-08T13:15:44;4.70;;;4.18;;
17214;SDS011;8723;51.502;6.918;2023-02-08T13:18:14;4.07;;;3.67;;
17214;SDS011;8723;51.502;6.918;2023-02-08T13:20:43;4.05;;;3.67;;
17214;SDS011;8723;51.502;6.918;2023-02-08T13:23:13;4.22;;;3.80;;
17214;SDS011;8723;51.502;6.918;2023-02-08T13:25:41;4.75;;;3.97;;
17214;SDS011;8723;51.502;6.918;2023-02-08T13:28:11;4.63;;;4.07;;
17214;SDS011;8723;51.502;6.918;2023-02-08T13:30:41;5.60;;;3.80;;
17214;SDS011;8723;51.502;6.918;2023-02-08T13:33:11;5.07;;;4.10;;
17214;SDS011;8723;51.502;6.918;2023-02-08T13:35:41;6.63;;;5.00;;
17214;SDS011;8723;51.502;6.918;2023-02-08T13:38:16;5.20;;;4.70;;
17214;SDS011;8723;51.502;6.918;2023-02-08T13:40:44;7.18;;;4.55;;
17214;SDS011;8723;51.502;6.918;2023-02-08T13:43:18;7.20;;;5.20;;
17214;SDS011;8723;51.502;6.918;2023-02-08T13:45:50;7.90;;;4.85;;
17214;SDS011;8723;51.502;6.918;2023-02-08T13:48:18;8.02;;;5.15;;
17214;SDS011;8723;51.502;6.918;2023-02-08T13:50:47;7.88;;;4.15;;
17214;SDS011;8723;51.502;6.918;2023-02-08T13:53:16;5.05;;;4.10;;
17214;SDS011;8723;51.502;6.918;2023-02-08T14:01:19;6.63;;;4.82;;
17214;SDS011;8723;51.502;6.918;2023-02-08T14:06:36;5.30;;;4.28;;
17214;SDS011;8723;51.502;6.918;2023-02-08T14:09:10;5.03;;;4.53;;
17214;SDS011;8723;51.502;6.918;2023-02-08T14:11:41;5.60;;;5.03;;
17214;SDS011;8723;51.502;6.918;2023-02-08T14:14:12;6.15;;;4.65;;
17214;SDS011;8723;51.502;6.918;2023-02-08T14:16:41;6.07;;;5.00;;
17214;SDS011;8723;51.502;6.918;2023-02-08T14:19:19;5.20;;;4.43;;
17214;SDS011;8723;51.502;6.918;2023-02-08T14:21:49;5.13;;;4.50;;
17214;SDS011;8723;51.502;6.918;2023-02-08T14:24:26;4.80;;;4.30;;
17214;SDS011;8723;51.502;6.918;2023-02-08T14:27:04;5.28;;;4.50;;
17214;SDS011;8723;51.502;6.918;2023-02-08T14:29:31;6.00;;;4.30;;
17214;SDS011;8723;51.502;6.918;2023-02-08T14:31:58;5.43;;;4.72;;
17214;SDS011;8723;51.502;6.918;2023-02-08T14:34:27;5.10;;;4.60;;
17214;SDS011;8723;51.502;6.918;2023-02-08T14:37:02;5.30;;;4.60;;
17214;SDS011;8723;51.502;6.918;2023-02-08T14:39:30;5.00;;;4.53;;
17214;SDS011;8723;51.502;6.918;2023-02-08T14:41:58;4.50;;;4.10;;
17214;SDS011;8723;51.502;6.918;2023-02-08T14:50:10;5.38;;;4.88;;
17214;SDS011;8723;51.502;6.918;2023-02-08T14:52:41;5.32;;;4.70;;
17214;SDS011;8723;51.502;6.918;2023-02-08T14:55:12;6.88;;;5.70;;
17214;SDS011;8723;51.502;6.918;2023-02-08T14:57:40;5.75;;;5.00;;
17214;SDS011;8723;51.502;6.918;2023-02-08T15:00:14;4.95;;;4.45;;
17214;SDS011;8723;51.502;6.918;2023-02-08T15:02:44;4.78;;;4.30;;
17214;SDS011;8723;51.502;6.918;2023-02-08T15:05:18;6.55;;;4.40;;
17214;SDS011;8723;51.502;6.918;2023-02-08T15:07:48;4.90;;;4.28;;
17214;SDS011;8723;51.502;6.918;2023-02-08T15:10:16;4.32;;;3.92;;
17214;SDS011;8723;51.502;6.918;2023-02-08T15:12:45;4.70;;;4.17;;
17214;SDS011;8723;51.502;6.918;2023-02-08T15:15:21;3.72;;;3.30;;
17214;SDS011;8723;51.502;6.918;2023-02-08T15:17:48;5.63;;;4.10;;
17214;SDS011;8723;51.502;6.918;2023-02-08T15:20:17;4.22;;;3.83;;
17214;SDS011;8723;51.502;6.918;2023-02-08T15:22:45;5.28;;;4.47;;
17214;SDS011;8723;51.502;6.918;2023-02-08T15:25:21;5.70;;;4.97;;
17214;SDS011;8723;51.502;6.918;2023-02-08T15:27:49;4.55;;;4.18;;
17214;SDS011;8723;51.502;6.918;2023-02-08T15:30:26;6.60;;;3.72;;